sensor_id;sensor_type;location;lat;lon;timestamp;P1;durP1;ratioP1;P2;durP2;ratioP2
49193;SDS011;35029;50.804;12.866;2023-03-14T00:01:54;0.95;;;0.75;;
49193;SDS011;35029;50.804;12.866;2023-03-14T00:04:20;0.70;;;0.70;;
49193;SDS011;35029;50.804;12.866;2023-03-14T00:06:45;0.63;;;0.63;;
49193;SDS011;35029;50.804;12.866;2023-03-14T00:09:12;0.77;;;0.57;;
49193;SDS011;35029;50.804;12.866;2023-03-14T00:11:38;0.63;;;0.60;;
49193;SDS011;35029;50.804;12.866;2023-03-14T00:14:04;1.17;;;0.70;;
49193;SDS011;35029;50.804;12.866;2023-03-14T00:16:29;0.50;;;0.50;;
49193;SDS011;35029;50.804;12.866;2023-03-14T00:18:55;0.80;;;0.60;;
49193;SDS011;35029;50.804;12.866;2023-03-14T00:21:21;1.35;;;0.63;;
49193;SDS011;35029;50.804;12.866;2023-03-14T00:23:46;1.10;;;0.65;;
49193;SDS011;35029;50.804;12.866;2023-03-14T00:26:13;0.95;;;0.80;;
49193;SDS011;35029;50.804;12.866;2023-03-14T00:28:41;0.70;;;0.70;;
49193;SDS011;35029;50.804;12.866;2023-03-14T00:31:09;1.85;;;0.50;;
49193;SDS011;35029;50.804;12.866;2023-03-14T00:33:38;0.52;;;0.52;;
49193;SDS011;35029;50.804;12.866;2023-03-14T00:36:04;0.50;;;0.40;;
49193;SDS011;35029;50.804;12.866;2023-03-14T00:38:34;0.40;;;0.40;;
49193;SDS011;35029;50.804;12.866;2023-03-14T00:41:03;0.40;;;0.40;;
49193;SDS011;35029;50.804;12.866;2023-03-14T00:43:29;0.40;;;0.40;;
49193;SDS011;35029;50.804;12.866;2023-03-14T00:45:56;0.40;;;0.40;;
49193;SDS011;35029;50.804;12.866;2023-03-14T00:48:25;0.68;;;0.40;;
49193;SDS011;35029;50.804;12.866;2023-03-14T00:50:51;0.50;;;0.50;;
49193;SDS011;35029;50.804;12.866;2023-03-14T00:53:17;0.47;;;0.47;;
49193;SDS011;35029;50.804;12.866;2023-03-14T00:55:44;0.50;;;0.50;;
49193;SDS011;35029;50.804;12.866;2023-03-14T00:58:11;0.40;;;0.40;;
49193;SDS011;35029;50.804;12.866;2023-03-14T01:00:39;0.45;;;0.45;;
49193;SDS011;35029;50.804;12.866;2023-03-14T01:03:05;0.40;;;0.40;;
49193;SDS011;35029;50.804;12.866;2023-03-14T01:05:31;0.40;;;0.40;;
49193;SDS011;35029;50.804;12.866;2023-03-14T01:07:57;0.88;;;0.50;;
49193;SDS011;35029;50.804;12.866;2023-03-14T01:10:23;0.40;;;0.40;;
49193;SDS011;35029;50.804;12.866;2023-03-14T01:12:49;0.60;;;0.40;;
49193;SDS011;35029;50.804;12.866;2023-03-14T01:15:14;0.47;;;0.47;;
49193;SDS011;35029;50.804;12.866;2023-03-14T01:17:40;0.40;;;0.40;;
49193;SDS011;35029;50.804;12.866;2023-03-14T01:20:06;0.50;;;0.50;;
49193;SDS011;35029;50.804;12.866;2023-03-14T01:22:35;0.40;;;0.40;;
49193;SDS011;35029;50.804;12.866;2023-03-14T01:25:01;0.40;;;0.40;;
49193;SDS011;35029;50.804;12.866;2023-03-14T01:27:27;0.55;;;0.50;;
49193;SDS011;35029;50.804;12.866;2023-03-14T01:29:54;1.35;;;0.50;;
49193;SDS011;35029;50.804;12.866;2023-03-14T01:32:20;0.60;;;0.60;;
49193;SDS011;35029;50.804;12.866;2023-03-14T01:34:46;0.40;;;0.40;;
49193;SDS011;35029;50.804;12.866;2023-03-14T01:37:12;0.47;;;0.47;;
49193;SDS011;35029;50.804;12.866;2023-03-14T01:39:38;0.50;;;0.50;;
49193;SDS011;35029;50.804;12.866;2023-03-14T01:42:04;1.58;;;0.45;;
49193;SDS011;35029;50.804;12.866;2023-03-14T01:47:19;0.30;;;0.30;;
49193;SDS011;35029;50.804;12.866;2023-03-14T01:49:46;0.40;;;0.40;;
49193;SDS011;35029;50.804;12.866;2023-03-14T01:52:18;0.63;;;0.40;;
49193;SDS011;35029;50.804;12.866;2023-03-14T01:57:22;0.50;;;0.43;;
49193;SDS011;35029;50.804;12.866;2023-03-14T02:02:39;1.10;;;0.50;;
49193;SDS011;35029;50.804;12.866;2023-03-14T02:05:07;0.40;;;0.40;;
49193;SDS011;35029;50.804;12.866;2023-03-14T02:07:51;0.52;;;0.43;;
49193;SDS011;35029;50.804;12.866;2023-03-14T02:10:23;0.45;;;0.45;;
49193;SDS011;35029;50.804;12.866;2023-03-14T02:12:53;0.60;;;0.60;;
49193;SDS011;35029;50.804;12.866;2023-03-14T02:15:38;0.82;;;0.50;;
49193;SDS011;35029;50.804;12.866;2023-03-14T02:18:10;1.25;;;0.50;;
49193;SDS011;35029;50.804;12.866;2023-03-14T02:20:57;0.57;;;0.50;;
49193;SDS011;35029;50.804;12.866;2023-03-14T02:23:34;0.40;;;0.40;;
49193;SDS011;35029;50.804;12.866;2023-03-14T02:26:10;1.45;;;0.52;;
49193;SDS011;35029;50.804;12.866;2023-03-14T02:28:43;0.50;;;0.50;;
49193;SDS011;35029;50.804;12.866;2023-03-14T02:31:09;1.30;;;0.70;;
49193;SDS011;35029;50.804;12.866;2023-03-14T02:33:36;0.70;;;0.68;;
49193;SDS011;35029;50.804;12.866;2023-03-14T02:36:07;0.50;;;0.50;;
49193;SDS011;35029;50.804;12.866;2023-03-14T02:38:41;0.43;;;0.43;;
49193;SDS011;35029;50.804;12.866;2023-03-14T02:41:14;1.85;;;0.50;;
49193;SDS011;35029;50.804;12.866;2023-03-14T02:43:46;1.45;;;0.52;;
49193;SDS011;35029;50.804;12.866;2023-03-14T02:46:16;1.08;;;0.60;;
49193;SDS011;35029;50.804;12.866;2023-03-14T02:48:53;0.77;;;0.60;;
49193;SDS011;35029;50.804;12.866;2023-03-14T02:51:21;0.47;;;0.47;;
49193;SDS011;35029;50.804;12.866;2023-03-14T02:53:49;2.67;;;0.60;;
49193;SDS011;35029;50.804;12.866;2023-03-14T02:56:15;0.50;;;0.50;;
49193;SDS011;35029;50.804;12.866;2023-03-14T02:58:40;1.17;;;0.60;;
49193;SDS011;35029;50.804;12.866;2023-03-14T03:01:26;1.02;;;0.50;;
49193;SDS011;35029;50.804;12.866;2023-03-14T03:03:52;0.68;;;0.40;;
49193;SDS011;35029;50.804;12.866;2023-03-14T03:06:18;1.48;;;0.50;;
49193;SDS011;35029;50.804;12.866;2023-03-14T03:08:44;1.35;;;0.50;;
49193;SDS011;35029;50.804;12.866;2023-03-14T03:11:10;0.52;;;0.47;;
49193;SDS011;35029;50.804;12.866;2023-03-14T03:13:36;1.20;;;0.60;;
49193;SDS011;35029;50.804;12.866;2023-03-14T03:16:03;0.45;;;0.45;;
49193;SDS011;35029;50.804;12.866;2023-03-14T03:18:29;0.35;;;0.35;;
49193;SDS011;35029;50.804;12.866;2023-03-14T03:20:55;1.08;;;0.70;;
49193;SDS011;35029;50.804;12.866;2023-03-14T03:23:21;0.52;;;0.52;;
49193;SDS011;35029;50.804;12.866;2023-03-14T03:25:50;1.27;;;0.50;;
49193;SDS011;35029;50.804;12.866;2023-03-14T03:28:18;0.50;;;0.50;;
49193;SDS011;35029;50.804;12.866;2023-03-14T03:30:45;0.70;;;0.40;;
49193;SDS011;35029;50.804;12.866;2023-03-14T03:33:11;0.65;;;0.60;;
49193;SDS011;35029;50.804;12.866;2023-03-14T03:35:55;0.88;;;0.60;;
49193;SDS011;35029;50.804;12.866;2023-03-14T03:38:27;1.25;;;0.50;;
49193;SDS011;35029;50.804;12.866;2023-03-14T03:40:54;2.75;;;0.75;;
49193;SDS011;35029;50.804;12.866;2023-03-14T03:43:23;1.88;;;0.63;;
49193;SDS011;35029;50.804;12.866;2023-03-14T03:45:48;0.70;;;0.50;;
49193;SDS011;35029;50.804;12.866;2023-03-14T03:48:14;2.60;;;1.20;;
49193;SDS011;35029;50.804;12.866;2023-03-14T03:50:43;1.42;;;0.55;;
49193;SDS011;35029;50.804;12.866;2023-03-14T03:53:11;1.48;;;0.70;;
49193;SDS011;35029;50.804;12.866;2023-03-14T03:55:36;4.53;;;1.08;;
49193;SDS011;35029;50.804;12.866;2023-03-14T03:58:02;3.97;;;1.00;;
49193;SDS011;35029;50.804;12.866;2023-03-14T04:00:28;1.75;;;0.73;;
49193;SDS011;35029;50.804;12.866;2023-03-14T04:02:53;2.15;;;0.60;;
49193;SDS011;35029;50.804;12.866;2023-03-14T04:05:19;2.50;;;0.88;;
49193;SDS011;35029;50.804;12.866;2023-03-14T04:07:52;3.13;;;0.82;;
49193;SDS011;35029;50.804;12.866;2023-03-14T04:10:22;2.33;;;0.60;;
49193;SDS011;35029;50.804;12.866;2023-03-14T04:13:02;4.07;;;0.80;;
49193;SDS011;35029;50.804;12.866;2023-03-14T04:15:29;2.08;;;1.10;;
49193;SDS011;35029;50.804;12.866;2023-03-14T04:17:58;2.58;;;0.73;;
49193;SDS011;35029;50.804;12.866;2023-03-14T04:20:24;1.15;;;0.70;;
49193;SDS011;35029;50.804;12.866;2023-03-14T04:22:50;2.40;;;0.93;;
49193;SDS011;35029;50.804;12.866;2023-03-14T04:25:16;2.38;;;0.80;;
49193;SDS011;35029;50.804;12.866;2023-03-14T04:27:48;1.40;;;0.60;;
49193;SDS011;35029;50.804;12.866;2023-03-14T04:30:21;3.50;;;1.00;;
49193;SDS011;35029;50.804;12.866;2023-03-14T04:32:52;2.08;;;1.10;;
49193;SDS011;35029;50.804;12.866;2023-03-14T04:35:19;3.30;;;1.33;;
49193;SDS011;35029;50.804;12.866;2023-03-14T04:37:44;2.85;;;0.77;;
49193;SDS011;35029;50.804;12.866;2023-03-14T04:40:14;2.53;;;0.70;;
49193;SDS011;35029;50.804;12.866;2023-03-14T04:42:41;6.03;;;1.20;;
49193;SDS011;35029;50.804;12.866;2023-03-14T04:45:07;1.50;;;0.85;;
49193;SDS011;35029;50.804;12.866;2023-03-14T04:47:34;2.75;;;1.08;;
49193;SDS011;35029;50.804;12.866;2023-03-14T04:50:00;2.83;;;1.00;;
49193;SDS011;35029;50.804;12.866;2023-03-14T04:52:25;2.38;;;0.95;;
49193;SDS011;35029;50.804;12.866;2023-03-14T04:54:51;0.93;;;0.70;;
49193;SDS011;35029;50.804;12.866;2023-03-14T04:57:18;2.65;;;0.90;;
49193;SDS011;35029;50.804;12.866;2023-03-14T04:59:44;4.68;;;0.93;;
49193;SDS011;35029;50.804;12.866;2023-03-14T05:02:23;3.60;;;1.27;;
49193;SDS011;35029;50.804;12.866;2023-03-14T05:05:18;6.20;;;1.60;;
49193;SDS011;35029;50.804;12.866;2023-03-14T05:08:04;2.65;;;1.20;;
49193;SDS011;35029;50.804;12.866;2023-03-14T05:10:51;2.47;;;1.25;;
49193;SDS011;35029;50.804;12.866;2023-03-14T05:13:39;5.95;;;2.03;;
49193;SDS011;35029;50.804;12.866;2023-03-14T05:16:23;1.67;;;1.02;;
49193;SDS011;35029;50.804;12.866;2023-03-14T05:19:03;1.98;;;1.10;;
49193;SDS011;35029;50.804;12.866;2023-03-14T05:21:57;5.65;;;1.65;;
49193;SDS011;35029;50.804;12.866;2023-03-14T05:24:34;4.60;;;1.33;;
49193;SDS011;35029;50.804;12.866;2023-03-14T05:27:00;4.35;;;1.55;;
49193;SDS011;35029;50.804;12.866;2023-03-14T05:29:37;7.05;;;1.38;;
49193;SDS011;35029;50.804;12.866;2023-03-14T05:32:21;4.97;;;1.58;;
49193;SDS011;35029;50.804;12.866;2023-03-14T05:35:22;4.47;;;1.08;;
49193;SDS011;35029;50.804;12.866;2023-03-14T05:38:23;3.55;;;1.00;;
49193;SDS011;35029;50.804;12.866;2023-03-14T05:41:21;2.72;;;0.90;;
49193;SDS011;35029;50.804;12.866;2023-03-14T05:44:13;3.67;;;1.13;;
49193;SDS011;35029;50.804;12.866;2023-03-14T05:47:00;4.32;;;1.17;;
49193;SDS011;35029;50.804;12.866;2023-03-14T05:49:41;4.32;;;1.02;;
49193;SDS011;35029;50.804;12.866;2023-03-14T05:52:21;3.85;;;0.90;;
49193;SDS011;35029;50.804;12.866;2023-03-14T05:55:05;2.88;;;1.23;;
49193;SDS011;35029;50.804;12.866;2023-03-14T05:57:49;1.98;;;1.10;;
49193;SDS011;35029;50.804;12.866;2023-03-14T06:00:25;2.72;;;1.08;;
49193;SDS011;35029;50.804;12.866;2023-03-14T06:03:04;2.17;;;1.00;;
49193;SDS011;35029;50.804;12.866;2023-03-14T06:05:33;3.80;;;1.20;;
49193;SDS011;35029;50.804;12.866;2023-03-14T06:08:00;2.78;;;1.05;;
49193;SDS011;35029;50.804;12.866;2023-03-14T06:10:29;4.32;;;1.60;;
49193;SDS011;35029;50.804;12.866;2023-03-14T06:12:54;7.63;;;1.45;;
49193;SDS011;35029;50.804;12.866;2023-03-14T06:15:21;3.72;;;0.90;;
49193;SDS011;35029;50.804;12.866;2023-03-14T06:17:49;3.53;;;1.00;;
49193;SDS011;35029;50.804;12.866;2023-03-14T06:20:17;3.83;;;1.10;;
49193;SDS011;35029;50.804;12.866;2023-03-14T06:22:43;6.63;;;1.20;;
49193;SDS011;35029;50.804;12.866;2023-03-14T06:25:11;3.22;;;1.10;;
49193;SDS011;35029;50.804;12.866;2023-03-14T06:27:37;7.40;;;1.70;;
49193;SDS011;35029;50.804;12.866;2023-03-14T06:30:03;3.08;;;1.17;;
49193;SDS011;35029;50.804;12.866;2023-03-14T06:32:30;2.80;;;1.02;;
49193;SDS011;35029;50.804;12.866;2023-03-14T06:35:01;3.60;;;1.20;;
49193;SDS011;35029;50.804;12.866;2023-03-14T06:37:32;4.82;;;1.33;;
49193;SDS011;35029;50.804;12.866;2023-03-14T06:39:58;4.65;;;1.23;;
49193;SDS011;35029;50.804;12.866;2023-03-14T06:42:45;4.47;;;1.33;;
49193;SDS011;35029;50.804;12.866;2023-03-14T06:45:13;2.42;;;1.33;;
49193;SDS011;35029;50.804;12.866;2023-03-14T06:47:39;3.40;;;1.30;;
49193;SDS011;35029;50.804;12.866;2023-03-14T06:50:06;4.25;;;1.20;;
49193;SDS011;35029;50.804;12.866;2023-03-14T06:52:33;2.60;;;1.27;;
49193;SDS011;35029;50.804;12.866;2023-03-14T06:54:59;4.57;;;1.23;;
49193;SDS011;35029;50.804;12.866;2023-03-14T06:57:25;2.78;;;1.00;;
49193;SDS011;35029;50.804;12.866;2023-03-14T06:59:51;4.18;;;1.23;;
49193;SDS011;35029;50.804;12.866;2023-03-14T07:02:17;1.83;;;0.82;;
49193;SDS011;35029;50.804;12.866;2023-03-14T07:04:44;1.23;;;0.80;;
49193;SDS011;35029;50.804;12.866;2023-03-14T07:07:10;1.50;;;0.80;;
49193;SDS011;35029;50.804;12.866;2023-03-14T07:09:37;2.92;;;1.17;;
49193;SDS011;35029;50.804;12.866;2023-03-14T07:12:03;1.75;;;1.00;;
49193;SDS011;35029;50.804;12.866;2023-03-14T07:14:29;5.43;;;1.58;;
49193;SDS011;35029;50.804;12.866;2023-03-14T07:16:55;2.28;;;1.05;;
49193;SDS011;35029;50.804;12.866;2023-03-14T07:19:22;5.65;;;1.45;;
49193;SDS011;35029;50.804;12.866;2023-03-14T07:21:48;5.78;;;1.20;;
49193;SDS011;35029;50.804;12.866;2023-03-14T07:24:18;4.25;;;1.02;;
49193;SDS011;35029;50.804;12.866;2023-03-14T07:26:44;1.55;;;0.93;;
49193;SDS011;35029;50.804;12.866;2023-03-14T07:29:09;2.60;;;1.10;;
49193;SDS011;35029;50.804;12.866;2023-03-14T07:31:36;5.22;;;1.30;;
49193;SDS011;35029;50.804;12.866;2023-03-14T07:34:02;3.53;;;1.15;;
49193;SDS011;35029;50.804;12.866;2023-03-14T07:36:31;2.60;;;0.82;;
49193;SDS011;35029;50.804;12.866;2023-03-14T07:38:58;5.07;;;1.63;;
49193;SDS011;35029;50.804;12.866;2023-03-14T07:41:37;2.25;;;0.90;;
49193;SDS011;35029;50.804;12.866;2023-03-14T07:44:25;6.07;;;1.15;;
49193;SDS011;35029;50.804;12.866;2023-03-14T07:46:51;3.30;;;1.08;;
49193;SDS011;35029;50.804;12.866;2023-03-14T07:49:17;6.13;;;1.73;;
49193;SDS011;35029;50.804;12.866;2023-03-14T07:51:43;3.08;;;1.20;;
49193;SDS011;35029;50.804;12.866;2023-03-14T07:54:12;2.17;;;1.00;;
49193;SDS011;35029;50.804;12.866;2023-03-14T07:56:37;2.80;;;1.08;;
49193;SDS011;35029;50.804;12.866;2023-03-14T07:59:03;2.88;;;1.05;;
49193;SDS011;35029;50.804;12.866;2023-03-14T08:01:29;4.20;;;1.23;;
49193;SDS011;35029;50.804;12.866;2023-03-14T08:03:54;2.90;;;1.13;;
49193;SDS011;35029;50.804;12.866;2023-03-14T08:06:20;2.78;;;1.10;;
49193;SDS011;35029;50.804;12.866;2023-03-14T08:08:45;1.48;;;0.90;;
49193;SDS011;35029;50.804;12.866;2023-03-14T08:11:11;3.15;;;1.00;;
49193;SDS011;35029;50.804;12.866;2023-03-14T08:13:37;1.92;;;0.73;;
49193;SDS011;35029;50.804;12.866;2023-03-14T08:16:03;4.70;;;1.05;;
49193;SDS011;35029;50.804;12.866;2023-03-14T08:18:29;2.30;;;0.95;;
49193;SDS011;35029;50.804;12.866;2023-03-14T08:20:55;1.40;;;0.90;;
49193;SDS011;35029;50.804;12.866;2023-03-14T08:23:21;2.70;;;1.05;;
49193;SDS011;35029;50.804;12.866;2023-03-14T08:25:50;3.50;;;0.98;;
49193;SDS011;35029;50.804;12.866;2023-03-14T08:28:16;1.88;;;1.08;;
49193;SDS011;35029;50.804;12.866;2023-03-14T08:30:42;3.83;;;0.90;;
49193;SDS011;35029;50.804;12.866;2023-03-14T08:33:08;3.72;;;0.90;;
49193;SDS011;35029;50.804;12.866;2023-03-14T08:35:33;1.23;;;0.90;;
49193;SDS011;35029;50.804;12.866;2023-03-14T08:37:59;2.28;;;1.10;;
49193;SDS011;35029;50.804;12.866;2023-03-14T08:40:24;2.45;;;1.10;;
49193;SDS011;35029;50.804;12.866;2023-03-14T08:42:50;3.60;;;0.70;;
49193;SDS011;35029;50.804;12.866;2023-03-14T08:45:15;2.00;;;0.80;;
49193;SDS011;35029;50.804;12.866;2023-03-14T08:47:44;2.38;;;0.75;;
49193;SDS011;35029;50.804;12.866;2023-03-14T08:50:10;2.40;;;0.77;;
49193;SDS011;35029;50.804;12.866;2023-03-14T08:52:37;5.20;;;0.80;;
49193;SDS011;35029;50.804;12.866;2023-03-14T08:55:05;1.67;;;0.57;;
49193;SDS011;35029;50.804;12.866;2023-03-14T08:57:32;1.95;;;0.73;;
49193;SDS011;35029;50.804;12.866;2023-03-14T08:59:58;2.17;;;0.70;;
49193;SDS011;35029;50.804;12.866;2023-03-14T09:02:24;1.85;;;0.98;;
49193;SDS011;35029;50.804;12.866;2023-03-14T09:04:50;2.13;;;0.70;;
49193;SDS011;35029;50.804;12.866;2023-03-14T09:07:17;1.80;;;0.75;;
49193;SDS011;35029;50.804;12.866;2023-03-14T09:09:43;2.83;;;0.90;;
49193;SDS011;35029;50.804;12.866;2023-03-14T09:12:09;3.05;;;1.00;;
49193;SDS011;35029;50.804;12.866;2023-03-14T09:14:34;2.10;;;0.73;;
49193;SDS011;35029;50.804;12.866;2023-03-14T09:17:00;1.10;;;0.70;;
49193;SDS011;35029;50.804;12.866;2023-03-14T09:19:27;4.40;;;0.80;;
49193;SDS011;35029;50.804;12.866;2023-03-14T09:21:54;2.40;;;0.80;;
49193;SDS011;35029;50.804;12.866;2023-03-14T09:24:20;1.65;;;0.70;;
49193;SDS011;35029;50.804;12.866;2023-03-14T09:26:45;1.48;;;0.80;;
49193;SDS011;35029;50.804;12.866;2023-03-14T09:29:11;3.65;;;0.80;;
49193;SDS011;35029;50.804;12.866;2023-03-14T09:31:37;1.40;;;0.80;;
49193;SDS011;35029;50.804;12.866;2023-03-14T09:34:02;3.00;;;0.90;;
49193;SDS011;35029;50.804;12.866;2023-03-14T09:36:28;6.43;;;0.82;;
49193;SDS011;35029;50.804;12.866;2023-03-14T09:38:55;2.92;;;0.80;;
49193;SDS011;35029;50.804;12.866;2023-03-14T09:41:25;4.63;;;1.45;;
49193;SDS011;35029;50.804;12.866;2023-03-14T09:44:10;1.65;;;0.77;;
49193;SDS011;35029;50.804;12.866;2023-03-14T09:46:42;3.33;;;0.80;;
49193;SDS011;35029;50.804;12.866;2023-03-14T09:52:00;4.05;;;1.05;;
49193;SDS011;35029;50.804;12.866;2023-03-14T09:54:36;3.25;;;0.90;;
49193;SDS011;35029;50.804;12.866;2023-03-14T09:57:05;1.25;;;0.70;;
49193;SDS011;35029;50.804;12.866;2023-03-14T09:59:31;2.50;;;0.63;;
49193;SDS011;35029;50.804;12.866;2023-03-14T10:02:02;2.25;;;1.13;;
49193;SDS011;35029;50.804;12.866;2023-03-14T10:04:39;1.63;;;0.80;;
49193;SDS011;35029;50.804;12.866;2023-03-14T10:07:15;1.98;;;0.77;;
49193;SDS011;35029;50.804;12.866;2023-03-14T10:09:49;2.05;;;0.80;;
49193;SDS011;35029;50.804;12.866;2023-03-14T10:12:16;1.33;;;0.90;;
49193;SDS011;35029;50.804;12.866;2023-03-14T10:14:48;4.50;;;1.00;;
49193;SDS011;35029;50.804;12.866;2023-03-14T10:17:16;3.17;;;0.68;;
49193;SDS011;35029;50.804;12.866;2023-03-14T10:22:21;1.23;;;0.95;;
49193;SDS011;35029;50.804;12.866;2023-03-14T10:24:52;1.65;;;0.68;;
49193;SDS011;35029;50.804;12.866;2023-03-14T10:27:40;2.00;;;1.10;;
49193;SDS011;35029;50.804;12.866;2023-03-14T10:30:07;2.15;;;0.68;;
49193;SDS011;35029;50.804;12.866;2023-03-14T10:32:52;1.15;;;0.50;;
49193;SDS011;35029;50.804;12.866;2023-03-14T10:35:19;1.65;;;0.95;;
49193;SDS011;35029;50.804;12.866;2023-03-14T10:37:59;6.28;;;0.73;;
49193;SDS011;35029;50.804;12.866;2023-03-14T10:40:33;1.27;;;0.85;;
49193;SDS011;35029;50.804;12.866;2023-03-14T10:43:03;2.22;;;0.82;;
49193;SDS011;35029;50.804;12.866;2023-03-14T10:45:33;2.17;;;0.70;;
49193;SDS011;35029;50.804;12.866;2023-03-14T10:50:47;2.05;;;0.73;;
49193;SDS011;35029;50.804;12.866;2023-03-14T10:53:16;2.10;;;0.80;;
49193;SDS011;35029;50.804;12.866;2023-03-14T10:55:43;2.30;;;0.93;;
49193;SDS011;35029;50.804;12.866;2023-03-14T11:00:49;2.25;;;0.93;;
49193;SDS011;35029;50.804;12.866;2023-03-14T11:03:19;1.77;;;0.80;;
49193;SDS011;35029;50.804;12.866;2023-03-14T11:06:20;2.28;;;1.10;;
49193;SDS011;35029;50.804;12.866;2023-03-14T11:08:42;4.80;;;1.25;;
49193;SDS011;35029;50.804;12.866;2023-03-14T11:16:36;1.80;;;0.93;;
49193;SDS011;35029;50.804;12.866;2023-03-14T11:19:11;1.80;;;1.35;;
49193;SDS011;35029;50.804;12.866;2023-03-14T11:21:51;2.97;;;0.80;;
49193;SDS011;35029;50.804;12.866;2023-03-14T11:24:49;2.08;;;0.70;;
49193;SDS011;35029;50.804;12.866;2023-03-14T11:27:42;1.45;;;1.00;;
49193;SDS011;35029;50.804;12.866;2023-03-14T11:33:16;2.75;;;0.90;;
49193;SDS011;35029;50.804;12.866;2023-03-14T11:35:59;0.90;;;0.60;;
49193;SDS011;35029;50.804;12.866;2023-03-14T11:41:04;2.85;;;0.68;;
49193;SDS011;35029;50.804;12.866;2023-03-14T11:43:37;1.92;;;0.60;;
49193;SDS011;35029;50.804;12.866;2023-03-14T11:51:29;2.38;;;0.75;;
49193;SDS011;35029;50.804;12.866;2023-03-14T11:54:16;2.70;;;0.60;;
49193;SDS011;35029;50.804;12.866;2023-03-14T12:07:57;1.55;;;0.70;;
49193;SDS011;35029;50.804;12.866;2023-03-14T12:10:38;2.45;;;0.70;;
49193;SDS011;35029;50.804;12.866;2023-03-14T12:13:10;1.38;;;0.57;;
49193;SDS011;35029;50.804;12.866;2023-03-14T12:19:05;2.58;;;0.60;;
49193;SDS011;35029;50.804;12.866;2023-03-14T12:21:07;0.63;;;0.50;;
49193;SDS011;35029;50.804;12.866;2023-03-14T12:26:25;3.80;;;0.75;;
49193;SDS011;35029;50.804;12.866;2023-03-14T12:42:00;1.17;;;0.65;;
49193;SDS011;35029;50.804;12.866;2023-03-14T12:47:13;0.45;;;0.45;;
49193;SDS011;35029;50.804;12.866;2023-03-14T12:49:42;1.88;;;0.90;;
49193;SDS011;35029;50.804;12.866;2023-03-14T12:55:22;1.63;;;0.70;;
49193;SDS011;35029;50.804;12.866;2023-03-14T13:01:01;1.38;;;0.68;;
49193;SDS011;35029;50.804;12.866;2023-03-14T13:14:45;0.70;;;0.50;;
49193;SDS011;35029;50.804;12.866;2023-03-14T13:17:14;0.82;;;0.68;;
49193;SDS011;35029;50.804;12.866;2023-03-14T13:19:43;0.98;;;0.60;;
49193;SDS011;35029;50.804;12.866;2023-03-14T13:22:17;1.73;;;0.77;;
49193;SDS011;35029;50.804;12.866;2023-03-14T13:24:47;1.30;;;0.43;;
49193;SDS011;35029;50.804;12.866;2023-03-14T13:27:20;1.33;;;0.50;;
49193;SDS011;35029;50.804;12.866;2023-03-14T13:29:48;1.55;;;0.60;;
49193;SDS011;35029;50.804;12.866;2023-03-14T13:32:17;2.25;;;0.60;;
49193;SDS011;35029;50.804;12.866;2023-03-14T13:34:46;0.50;;;0.50;;
49193;SDS011;35029;50.804;12.866;2023-03-14T13:37:20;0.88;;;0.50;;
49193;SDS011;35029;50.804;12.866;2023-03-14T13:39:51;1.05;;;0.60;;
49193;SDS011;35029;50.804;12.866;2023-03-14T13:42:21;0.40;;;0.40;;
49193;SDS011;35029;50.804;12.866;2023-03-14T13:44:51;0.85;;;0.40;;
49193;SDS011;35029;50.804;12.866;2023-03-14T13:47:20;1.02;;;0.57;;
49193;SDS011;35029;50.804;12.866;2023-03-14T13:50:04;1.02;;;0.73;;
49193;SDS011;35029;50.804;12.866;2023-03-14T13:52:36;1.92;;;0.57;;
49193;SDS011;35029;50.804;12.866;2023-03-14T13:55:05;1.23;;;0.50;;
49193;SDS011;35029;50.804;12.866;2023-03-14T13:57:48;1.55;;;0.60;;
49193;SDS011;35029;50.804;12.866;2023-03-14T14:02:55;5.00;;;1.08;;
49193;SDS011;35029;50.804;12.866;2023-03-14T14:05:26;3.78;;;0.70;;
49193;SDS011;35029;50.804;12.866;2023-03-14T14:10:20;2.35;;;0.93;;
49193;SDS011;35029;50.804;12.866;2023-03-14T14:12:56;1.75;;;0.85;;
49193;SDS011;35029;50.804;12.866;2023-03-14T14:15:28;1.58;;;0.60;;
49193;SDS011;35029;50.804;12.866;2023-03-14T14:18:01;0.60;;;0.50;;
49193;SDS011;35029;50.804;12.866;2023-03-14T14:20:41;1.27;;;0.70;;
49193;SDS011;35029;50.804;12.866;2023-03-14T14:23:10;1.30;;;0.70;;
49193;SDS011;35029;50.804;12.866;2023-03-14T14:25:42;1.20;;;0.70;;
49193;SDS011;35029;50.804;12.866;2023-03-14T14:34:17;1.30;;;0.60;;
49193;SDS011;35029;50.804;12.866;2023-03-14T14:36:40;0.60;;;0.55;;
49193;SDS011;35029;50.804;12.866;2023-03-14T14:39:17;3.15;;;0.93;;
49193;SDS011;35029;50.804;12.866;2023-03-14T14:41:47;0.55;;;0.55;;
49193;SDS011;35029;50.804;12.866;2023-03-14T14:44:16;0.68;;;0.55;;
49193;SDS011;35029;50.804;12.866;2023-03-14T14:49:15;4.88;;;0.95;;
49193;SDS011;35029;50.804;12.866;2023-03-14T14:51:47;0.73;;;0.50;;
49193;SDS011;35029;50.804;12.866;2023-03-14T14:54:15;1.67;;;0.75;;
49193;SDS011;35029;50.804;12.866;2023-03-14T14:57:01;2.30;;;0.70;;
49193;SDS011;35029;50.804;12.866;2023-03-14T14:59:28;0.95;;;0.70;;
49193;SDS011;35029;50.804;12.866;2023-03-14T15:01:57;1.25;;;0.80;;
49193;SDS011;35029;50.804;12.866;2023-03-14T15:04:25;1.08;;;0.70;;
49193;SDS011;35029;50.804;12.866;2023-03-14T15:06:52;2.65;;;0.47;;
49193;SDS011;35029;50.804;12.866;2023-03-14T15:09:18;1.08;;;0.60;;
49193;SDS011;35029;50.804;12.866;2023-03-14T15:11:45;1.23;;;0.60;;
49193;SDS011;35029;50.804;12.866;2023-03-14T15:14:12;0.70;;;0.60;;
49193;SDS011;35029;50.804;12.866;2023-03-14T15:16:37;1.20;;;0.68;;
49193;SDS011;35029;50.804;12.866;2023-03-14T15:19:20;0.68;;;0.50;;
49193;SDS011;35029;50.804;12.866;2023-03-14T15:21:48;3.38;;;0.77;;
49193;SDS011;35029;50.804;12.866;2023-03-14T15:24:14;1.40;;;0.65;;
49193;SDS011;35029;50.804;12.866;2023-03-14T15:26:41;1.42;;;0.60;;
49193;SDS011;35029;50.804;12.866;2023-03-14T15:29:09;1.13;;;0.60;;
49193;SDS011;35029;50.804;12.866;2023-03-14T15:34:09;0.73;;;0.55;;
49193;SDS011;35029;50.804;12.866;2023-03-14T15:36:35;1.60;;;0.57;;
49193;SDS011;35029;50.804;12.866;2023-03-14T15:39:02;3.05;;;0.70;;
49193;SDS011;35029;50.804;12.866;2023-03-14T15:41:29;2.95;;;0.85;;
49193;SDS011;35029;50.804;12.866;2023-03-14T15:43:55;0.65;;;0.55;;
49193;SDS011;35029;50.804;12.866;2023-03-14T15:46:21;0.90;;;0.60;;
49193;SDS011;35029;50.804;12.866;2023-03-14T15:48:47;0.52;;;0.50;;
49193;SDS011;35029;50.804;12.866;2023-03-14T15:51:15;3.00;;;0.88;;
49193;SDS011;35029;50.804;12.866;2023-03-14T15:53:42;2.42;;;0.70;;
49193;SDS011;35029;50.804;12.866;2023-03-14T15:56:15;3.85;;;0.70;;
49193;SDS011;35029;50.804;12.866;2023-03-14T15:58:43;4.93;;;1.00;;
49193;SDS011;35029;50.804;12.866;2023-03-14T16:01:12;1.60;;;0.80;;
49193;SDS011;35029;50.804;12.866;2023-03-14T16:03:38;2.03;;;1.00;;
49193;SDS011;35029;50.804;12.866;2023-03-14T16:06:04;2.05;;;0.70;;
49193;SDS011;35029;50.804;12.866;2023-03-14T16:08:32;4.50;;;0.90;;
49193;SDS011;35029;50.804;12.866;2023-03-14T16:10:58;2.00;;;0.60;;
49193;SDS011;35029;50.804;12.866;2023-03-14T16:13:24;4.32;;;0.73;;
49193;SDS011;35029;50.804;12.866;2023-03-14T16:15:54;2.95;;;0.70;;
49193;SDS011;35029;50.804;12.866;2023-03-14T16:18:24;1.02;;;0.63;;
49193;SDS011;35029;50.804;12.866;2023-03-14T16:21:00;2.47;;;0.70;;
49193;SDS011;35029;50.804;12.866;2023-03-14T16:23:27;1.80;;;0.73;;
49193;SDS011;35029;50.804;12.866;2023-03-14T16:25:54;1.05;;;0.60;;
49193;SDS011;35029;50.804;12.866;2023-03-14T16:28:20;2.00;;;0.88;;
49193;SDS011;35029;50.804;12.866;2023-03-14T16:30:46;1.67;;;0.60;;
49193;SDS011;35029;50.804;12.866;2023-03-14T16:33:12;2.40;;;0.88;;